Tokat Airport

LTAW · Tokat, 土耳其

使用的METAR站距离机场72 km。
罗盘
风向 的 风向 250° Tokat Airport 6/24
风: 3 kt, 1 beaufort

3 kt

改变
0 ft 2.000 4.000 6.000 8.000 10.000
Cloud Cloud Cloud Cloud Cloud Cloud
BKN 3.000
Cloud Cloud Cloud Cloud Cloud Cloud
BKN 8.000
METAR LTAR 032250Z 25003KT 9999 -RA BKN030 BKN080 02/01 Q1014

METAR Tokat Airport - LTAW/TJK

Tokat Airport是,土耳其中的中型机场。 该机场位于纬度40,32494和经度36,39027。 该机场有一条跑道: 6/24. 本场的ICAO机场代码为LTAW。 该机场的IATA代码为TJK。 机场在Ankara FIR中。

该航空气象观测是针对Sivas Nuri Demirağ Airport在2024年3月4日 01:50, 当地时间进行的。

机场观察

风向为250°,速度为3 kt。

可见度为10 km 或者更多。

有碎云在3.000 ft的高度 和 碎云在8.000 ft的高度。 破损或更高的上限为3.000 ft。

当前天气为光 雨。 温度为2 °C,阵风为-1 °C。 露点为1 °C,相对湿度为93%。 海平面上的气压为1014 hPa (QNH)。

白天

今天,太阳从07:04升起,在18:28降落。 这适用于Tokat Airport,世界夏令时可能有所不同。 当地时间与世界标准时间之间的时差为+3 小时。 当前,没有夏令时有效。

公司介绍

我们没有关于这个机场的公司信息。

体会

到Vliegles.nl去找飞行课程,跳伞和其他飞行体验。 浏览页面,了解Tokat Airport附近所有可用的活动。 你也可以使用搜索功能来寻找你所在地附近的特定飞行课程、跳伞或其他飞行体验。

跑道

Id 标题 侧风 逆风 侧风 %
6/24 070°-250° 3 kt 0 %

逆风成分最大的方向会被突出显示,并用于横风计算。 这并不一定意味着这个方向在使用。

乌云

3.000 ft BKN 碎云
8.000 ft BKN 碎云

温度 & 天气

天气 光 雨
温度 2 °C
露点 1 °C
相对湿度 93%
风寒 -1 °C
Kp-index 4 (0-9)

白天

日出
07:01 (4:56)
中午
12:44
日落
18:26

小工具

你想在你的网站上有一个关于Tokat Airport的当前航空天气(METAR)的小部件吗?

显示HTML代码
?>